Terminal Aerodrome Forecast
Issued by NWS

Home | Current Version | Previous Version | Text Only | Print | Product List | Glossary On
Versions: 1 2 3 4 5 6 7 8 9 10 11 12 13 14 15 16 17 18 19 20
000
FTAK31 PAJN 160700 AAA
TAFAGY
TAF AMD
PAGY 160729Z 1607/1706 00000KT 1SM BR VCSH SCT004 OVC020
      TEMPO 1607/1611 1/2SM FG BKN002 OVC010
     FM161100 00000KT 1SM -RA BR SCT004 OVC015
     FM161800 21005KT P6SM VCSH SCT015 OVC060
     FM162200 21010KT P6SM OVC100
     FM170300 VRB03KT P6SM BKN100
      AMD LTD TO CLD VIS AND WIND=

USA.gov is the U.S. government's official web portal to all federal, state and local government web resources and services.